sensor_id;sensor_type;location;lat;lon;timestamp;P1;durP1;ratioP1;P2;durP2;ratioP2
18076;SDS011;9165;45.714;11.362;2023-08-06T00:00:59;1.30;;;1.00;;
18076;SDS011;9165;45.714;11.362;2023-08-06T00:03:26;1.20;;;1.00;;
18076;SDS011;9165;45.714;11.362;2023-08-06T00:05:52;2.50;;;0.90;;
18076;SDS011;9165;45.714;11.362;2023-08-06T00:08:20;0.90;;;0.90;;
18076;SDS011;9165;45.714;11.362;2023-08-06T00:10:47;3.63;;;1.43;;
18076;SDS011;9165;45.714;11.362;2023-08-06T00:13:14;1.70;;;0.80;;
18076;SDS011;9165;45.714;11.362;2023-08-06T00:15:40;2.43;;;1.10;;
18076;SDS011;9165;45.714;11.362;2023-08-06T00:18:07;0.73;;;0.73;;
18076;SDS011;9165;45.714;11.362;2023-08-06T00:20:33;2.80;;;1.47;;
18076;SDS011;9165;45.714;11.362;2023-08-06T00:23:00;1.10;;;0.87;;
18076;SDS011;9165;45.714;11.362;2023-08-06T00:25:28;5.83;;;0.93;;
18076;SDS011;9165;45.714;11.362;2023-08-06T00:27:55;3.23;;;0.83;;
18076;SDS011;9165;45.714;11.362;2023-08-06T00:30:22;1.30;;;0.90;;
18076;SDS011;9165;45.714;11.362;2023-08-06T00:32:48;1.23;;;1.03;;
18076;SDS011;9165;45.714;11.362;2023-08-06T00:35:15;1.47;;;0.80;;
18076;SDS011;9165;45.714;11.362;2023-08-06T00:37:42;1.57;;;0.80;;
18076;SDS011;9165;45.714;11.362;2023-08-06T00:40:08;3.77;;;1.07;;
18076;SDS011;9165;45.714;11.362;2023-08-06T00:42:37;0.87;;;0.87;;
18076;SDS011;9165;45.714;11.362;2023-08-06T00:45:03;4.53;;;0.80;;
18076;SDS011;9165;45.714;11.362;2023-08-06T00:47:30;5.07;;;1.20;;
18076;SDS011;9165;45.714;11.362;2023-08-06T00:49:57;4.40;;;0.90;;
18076;SDS011;9165;45.714;11.362;2023-08-06T00:52:23;0.90;;;0.80;;
18076;SDS011;9165;45.714;11.362;2023-08-06T00:54:50;1.57;;;1.00;;
18076;SDS011;9165;45.714;11.362;2023-08-06T00:57:17;4.57;;;0.73;;
18076;SDS011;9165;45.714;11.362;2023-08-06T00:59:45;2.57;;;0.80;;
18076;SDS011;9165;45.714;11.362;2023-08-06T01:02:12;0.80;;;0.80;;
18076;SDS011;9165;45.714;11.362;2023-08-06T01:04:39;0.70;;;0.70;;
18076;SDS011;9165;45.714;11.362;2023-08-06T01:07:08;3.07;;;0.70;;
18076;SDS011;9165;45.714;11.362;2023-08-06T01:09:41;2.93;;;1.00;;
18076;SDS011;9165;45.714;11.362;2023-08-06T01:12:13;0.77;;;0.70;;
18076;SDS011;9165;45.714;11.362;2023-08-06T01:14:47;0.83;;;0.73;;
18076;SDS011;9165;45.714;11.362;2023-08-06T01:17:18;0.90;;;0.90;;
18076;SDS011;9165;45.714;11.362;2023-08-06T01:19:45;3.03;;;0.90;;
18076;SDS011;9165;45.714;11.362;2023-08-06T01:22:13;3.70;;;0.80;;
18076;SDS011;9165;45.714;11.362;2023-08-06T01:24:40;4.87;;;0.97;;
18076;SDS011;9165;45.714;11.362;2023-08-06T01:27:09;5.07;;;0.90;;
18076;SDS011;9165;45.714;11.362;2023-08-06T01:29:38;3.40;;;0.83;;
18076;SDS011;9165;45.714;11.362;2023-08-06T01:32:07;3.13;;;1.20;;
18076;SDS011;9165;45.714;11.362;2023-08-06T01:34:35;4.00;;;0.90;;
18076;SDS011;9165;45.714;11.362;2023-08-06T01:37:03;4.43;;;1.00;;
18076;SDS011;9165;45.714;11.362;2023-08-06T01:39:32;2.50;;;0.80;;
18076;SDS011;9165;45.714;11.362;2023-08-06T01:41:59;0.93;;;0.90;;
18076;SDS011;9165;45.714;11.362;2023-08-06T01:44:26;3.13;;;0.90;;
18076;SDS011;9165;45.714;11.362;2023-08-06T01:46:52;1.10;;;0.70;;
18076;SDS011;9165;45.714;11.362;2023-08-06T01:49:19;4.97;;;1.00;;
18076;SDS011;9165;45.714;11.362;2023-08-06T01:51:46;2.93;;;0.90;;
18076;SDS011;9165;45.714;11.362;2023-08-06T01:54:12;1.33;;;0.60;;
18076;SDS011;9165;45.714;11.362;2023-08-06T01:56:41;1.53;;;0.80;;
18076;SDS011;9165;45.714;11.362;2023-08-06T01:59:07;0.87;;;0.60;;
18076;SDS011;9165;45.714;11.362;2023-08-06T02:01:34;0.67;;;0.57;;
18076;SDS011;9165;45.714;11.362;2023-08-06T02:04:00;3.17;;;0.60;;
18076;SDS011;9165;45.714;11.362;2023-08-06T02:06:27;1.30;;;0.80;;
18076;SDS011;9165;45.714;11.362;2023-08-06T02:08:54;0.80;;;0.60;;
18076;SDS011;9165;45.714;11.362;2023-08-06T02:11:20;1.00;;;0.70;;
18076;SDS011;9165;45.714;11.362;2023-08-06T02:13:48;1.60;;;0.80;;
18076;SDS011;9165;45.714;11.362;2023-08-06T02:16:15;0.87;;;0.63;;
18076;SDS011;9165;45.714;11.362;2023-08-06T02:18:41;1.47;;;0.90;;
18076;SDS011;9165;45.714;11.362;2023-08-06T02:21:08;2.20;;;0.80;;
18076;SDS011;9165;45.714;11.362;2023-08-06T02:23:35;1.80;;;0.87;;
18076;SDS011;9165;45.714;11.362;2023-08-06T02:26:01;7.87;;;0.83;;
18076;SDS011;9165;45.714;11.362;2023-08-06T02:28:29;0.93;;;0.80;;
18076;SDS011;9165;45.714;11.362;2023-08-06T02:30:57;0.60;;;0.60;;
18076;SDS011;9165;45.714;11.362;2023-08-06T02:33:23;0.53;;;0.53;;
18076;SDS011;9165;45.714;11.362;2023-08-06T02:35:50;3.87;;;0.70;;
18076;SDS011;9165;45.714;11.362;2023-08-06T02:38:17;8.03;;;1.30;;
18076;SDS011;9165;45.714;11.362;2023-08-06T02:40:44;3.00;;;0.60;;
18076;SDS011;9165;45.714;11.362;2023-08-06T02:43:11;0.93;;;0.57;;
18076;SDS011;9165;45.714;11.362;2023-08-06T02:45:38;1.43;;;0.80;;
18076;SDS011;9165;45.714;11.362;2023-08-06T02:48:06;2.67;;;0.70;;
18076;SDS011;9165;45.714;11.362;2023-08-06T02:50:37;3.90;;;0.60;;
18076;SDS011;9165;45.714;11.362;2023-08-06T02:53:04;4.40;;;0.80;;
18076;SDS011;9165;45.714;11.362;2023-08-06T02:55:31;6.17;;;0.80;;
18076;SDS011;9165;45.714;11.362;2023-08-06T02:57:58;0.50;;;0.50;;
18076;SDS011;9165;45.714;11.362;2023-08-06T03:00:25;2.27;;;0.80;;
18076;SDS011;9165;45.714;11.362;2023-08-06T03:02:52;2.00;;;0.60;;
18076;SDS011;9165;45.714;11.362;2023-08-06T03:05:20;1.13;;;0.90;;
18076;SDS011;9165;45.714;11.362;2023-08-06T03:07:47;0.60;;;0.60;;
18076;SDS011;9165;45.714;11.362;2023-08-06T03:10:14;2.10;;;0.60;;
18076;SDS011;9165;45.714;11.362;2023-08-06T03:12:40;0.70;;;0.67;;
18076;SDS011;9165;45.714;11.362;2023-08-06T03:15:07;2.57;;;0.67;;
18076;SDS011;9165;45.714;11.362;2023-08-06T03:17:34;2.13;;;0.40;;
18076;SDS011;9165;45.714;11.362;2023-08-06T03:20:01;7.33;;;0.60;;
18076;SDS011;9165;45.714;11.362;2023-08-06T03:22:29;1.47;;;0.50;;
18076;SDS011;9165;45.714;11.362;2023-08-06T03:24:56;0.73;;;0.67;;
18076;SDS011;9165;45.714;11.362;2023-08-06T03:27:23;4.00;;;0.80;;
18076;SDS011;9165;45.714;11.362;2023-08-06T03:29:50;0.57;;;0.57;;
18076;SDS011;9165;45.714;11.362;2023-08-06T03:32:17;1.37;;;0.83;;
18076;SDS011;9165;45.714;11.362;2023-08-06T03:34:43;0.87;;;0.73;;
18076;SDS011;9165;45.714;11.362;2023-08-06T03:37:10;2.27;;;1.00;;
18076;SDS011;9165;45.714;11.362;2023-08-06T03:39:38;0.97;;;0.60;;
18076;SDS011;9165;45.714;11.362;2023-08-06T03:42:05;0.50;;;0.50;;
18076;SDS011;9165;45.714;11.362;2023-08-06T03:44:31;8.57;;;0.97;;
18076;SDS011;9165;45.714;11.362;2023-08-06T03:46:58;2.30;;;0.70;;
18076;SDS011;9165;45.714;11.362;2023-08-06T03:49:24;0.80;;;0.80;;
18076;SDS011;9165;45.714;11.362;2023-08-06T03:51:51;0.83;;;0.80;;
18076;SDS011;9165;45.714;11.362;2023-08-06T03:54:18;2.50;;;0.93;;
18076;SDS011;9165;45.714;11.362;2023-08-06T03:56:46;1.37;;;0.70;;
18076;SDS011;9165;45.714;11.362;2023-08-06T03:59:12;1.20;;;0.70;;
18076;SDS011;9165;45.714;11.362;2023-08-06T04:01:39;5.23;;;0.80;;
18076;SDS011;9165;45.714;11.362;2023-08-06T04:04:06;5.23;;;1.00;;
18076;SDS011;9165;45.714;11.362;2023-08-06T04:06:32;2.63;;;0.60;;
18076;SDS011;9165;45.714;11.362;2023-08-06T04:08:59;0.73;;;0.60;;
18076;SDS011;9165;45.714;11.362;2023-08-06T04:11:25;2.70;;;0.90;;
18076;SDS011;9165;45.714;11.362;2023-08-06T04:13:53;1.70;;;0.87;;
18076;SDS011;9165;45.714;11.362;2023-08-06T04:16:20;4.50;;;0.73;;
18076;SDS011;9165;45.714;11.362;2023-08-06T04:18:47;3.80;;;0.90;;
18076;SDS011;9165;45.714;11.362;2023-08-06T04:21:14;3.20;;;0.90;;
18076;SDS011;9165;45.714;11.362;2023-08-06T04:23:40;2.27;;;0.70;;
18076;SDS011;9165;45.714;11.362;2023-08-06T04:26:07;1.57;;;0.80;;
18076;SDS011;9165;45.714;11.362;2023-08-06T04:28:34;1.10;;;0.80;;
18076;SDS011;9165;45.714;11.362;2023-08-06T04:31:02;1.17;;;0.87;;
18076;SDS011;9165;45.714;11.362;2023-08-06T04:33:28;0.97;;;0.90;;
18076;SDS011;9165;45.714;11.362;2023-08-06T04:35:55;0.90;;;0.63;;
18076;SDS011;9165;45.714;11.362;2023-08-06T04:38:23;1.70;;;1.00;;
18076;SDS011;9165;45.714;11.362;2023-08-06T04:40:50;5.13;;;0.90;;
18076;SDS011;9165;45.714;11.362;2023-08-06T04:43:17;0.93;;;0.90;;
18076;SDS011;9165;45.714;11.362;2023-08-06T04:45:45;0.87;;;0.80;;
18076;SDS011;9165;45.714;11.362;2023-08-06T04:48:14;1.00;;;0.90;;
18076;SDS011;9165;45.714;11.362;2023-08-06T04:50:43;0.77;;;0.77;;
18076;SDS011;9165;45.714;11.362;2023-08-06T04:53:09;1.37;;;0.93;;
18076;SDS011;9165;45.714;11.362;2023-08-06T04:55:36;1.00;;;1.00;;
18076;SDS011;9165;45.714;11.362;2023-08-06T04:58:03;3.93;;;1.10;;
18076;SDS011;9165;45.714;11.362;2023-08-06T05:00:29;0.77;;;0.67;;
18076;SDS011;9165;45.714;11.362;2023-08-06T05:02:56;3.97;;;1.27;;
18076;SDS011;9165;45.714;11.362;2023-08-06T05:05:24;2.53;;;1.17;;
18076;SDS011;9165;45.714;11.362;2023-08-06T05:07:53;3.03;;;1.10;;
18076;SDS011;9165;45.714;11.362;2023-08-06T05:10:20;1.03;;;0.80;;
18076;SDS011;9165;45.714;11.362;2023-08-06T05:12:47;1.20;;;0.97;;
18076;SDS011;9165;45.714;11.362;2023-08-06T05:15:14;2.70;;;1.03;;
18076;SDS011;9165;45.714;11.362;2023-08-06T05:17:41;2.73;;;0.70;;
18076;SDS011;9165;45.714;11.362;2023-08-06T05:20:08;3.90;;;0.80;;
18076;SDS011;9165;45.714;11.362;2023-08-06T05:22:36;1.03;;;0.93;;
18076;SDS011;9165;45.714;11.362;2023-08-06T05:25:03;2.53;;;0.87;;
18076;SDS011;9165;45.714;11.362;2023-08-06T05:27:30;2.87;;;0.93;;
18076;SDS011;9165;45.714;11.362;2023-08-06T05:29:56;1.33;;;1.20;;
18076;SDS011;9165;45.714;11.362;2023-08-06T05:32:23;2.10;;;0.90;;
18076;SDS011;9165;45.714;11.362;2023-08-06T05:34:50;0.50;;;0.50;;
18076;SDS011;9165;45.714;11.362;2023-08-06T05:37:16;0.63;;;0.63;;
18076;SDS011;9165;45.714;11.362;2023-08-06T05:39:44;3.83;;;0.80;;
18076;SDS011;9165;45.714;11.362;2023-08-06T05:42:11;2.27;;;0.83;;
18076;SDS011;9165;45.714;11.362;2023-08-06T05:44:38;2.13;;;0.90;;
18076;SDS011;9165;45.714;11.362;2023-08-06T05:47:05;1.93;;;0.67;;
18076;SDS011;9165;45.714;11.362;2023-08-06T05:49:31;6.53;;;1.20;;
18076;SDS011;9165;45.714;11.362;2023-08-06T05:51:58;2.40;;;0.93;;
18076;SDS011;9165;45.714;11.362;2023-08-06T05:54:24;1.27;;;0.90;;
18076;SDS011;9165;45.714;11.362;2023-08-06T05:56:52;0.87;;;0.83;;
18076;SDS011;9165;45.714;11.362;2023-08-06T05:59:19;1.00;;;0.70;;
18076;SDS011;9165;45.714;11.362;2023-08-06T06:01:46;0.67;;;0.67;;
18076;SDS011;9165;45.714;11.362;2023-08-06T06:04:12;1.27;;;0.80;;
18076;SDS011;9165;45.714;11.362;2023-08-06T06:06:39;2.57;;;1.27;;
18076;SDS011;9165;45.714;11.362;2023-08-06T06:09:06;0.90;;;0.60;;
18076;SDS011;9165;45.714;11.362;2023-08-06T06:11:33;0.70;;;0.70;;
18076;SDS011;9165;45.714;11.362;2023-08-06T06:14:01;0.80;;;0.80;;
18076;SDS011;9165;45.714;11.362;2023-08-06T06:16:28;0.80;;;0.80;;
18076;SDS011;9165;45.714;11.362;2023-08-06T06:18:54;4.70;;;0.90;;
18076;SDS011;9165;45.714;11.362;2023-08-06T06:21:22;0.90;;;0.70;;
18076;SDS011;9165;45.714;11.362;2023-08-06T06:23:49;0.40;;;0.40;;
18076;SDS011;9165;45.714;11.362;2023-08-06T06:26:16;2.13;;;0.70;;
18076;SDS011;9165;45.714;11.362;2023-08-06T06:28:43;1.07;;;1.00;;
18076;SDS011;9165;45.714;11.362;2023-08-06T06:31:11;5.03;;;0.67;;
18076;SDS011;9165;45.714;11.362;2023-08-06T06:33:38;6.20;;;1.00;;
18076;SDS011;9165;45.714;11.362;2023-08-06T06:36:05;1.00;;;0.70;;
18076;SDS011;9165;45.714;11.362;2023-08-06T06:38:32;1.93;;;0.67;;
18076;SDS011;9165;45.714;11.362;2023-08-06T06:40:59;3.73;;;0.90;;
18076;SDS011;9165;45.714;11.362;2023-08-06T06:43:27;0.80;;;0.63;;
18076;SDS011;9165;45.714;11.362;2023-08-06T06:45:55;1.60;;;0.80;;
18076;SDS011;9165;45.714;11.362;2023-08-06T06:48:24;1.23;;;0.97;;
18076;SDS011;9165;45.714;11.362;2023-08-06T06:50:50;2.10;;;0.87;;
18076;SDS011;9165;45.714;11.362;2023-08-06T06:53:17;2.80;;;1.20;;
18076;SDS011;9165;45.714;11.362;2023-08-06T06:55:43;4.80;;;1.00;;
18076;SDS011;9165;45.714;11.362;2023-08-06T06:58:10;4.93;;;1.03;;
18076;SDS011;9165;45.714;11.362;2023-08-06T07:00:38;1.37;;;1.27;;
18076;SDS011;9165;45.714;11.362;2023-08-06T07:03:05;2.17;;;1.20;;
18076;SDS011;9165;45.714;11.362;2023-08-06T07:05:33;2.43;;;1.23;;
18076;SDS011;9165;45.714;11.362;2023-08-06T07:08:00;2.53;;;1.10;;
18076;SDS011;9165;45.714;11.362;2023-08-06T07:10:27;1.60;;;1.10;;
18076;SDS011;9165;45.714;11.362;2023-08-06T07:12:54;1.17;;;1.03;;
18076;SDS011;9165;45.714;11.362;2023-08-06T07:15:21;1.00;;;1.00;;
18076;SDS011;9165;45.714;11.362;2023-08-06T07:17:48;1.00;;;0.90;;
18076;SDS011;9165;45.714;11.362;2023-08-06T07:20:14;3.53;;;1.00;;
18076;SDS011;9165;45.714;11.362;2023-08-06T07:22:43;2.33;;;1.00;;
18076;SDS011;9165;45.714;11.362;2023-08-06T07:25:10;2.10;;;1.20;;
18076;SDS011;9165;45.714;11.362;2023-08-06T07:27:36;2.83;;;1.50;;
18076;SDS011;9165;45.714;11.362;2023-08-06T07:30:04;1.77;;;1.13;;
18076;SDS011;9165;45.714;11.362;2023-08-06T07:32:30;0.90;;;0.90;;
18076;SDS011;9165;45.714;11.362;2023-08-06T07:34:57;1.00;;;1.00;;
18076;SDS011;9165;45.714;11.362;2023-08-06T07:37:25;2.47;;;1.40;;
18076;SDS011;9165;45.714;11.362;2023-08-06T07:39:54;2.37;;;1.37;;
18076;SDS011;9165;45.714;11.362;2023-08-06T07:42:21;3.20;;;1.80;;
18076;SDS011;9165;45.714;11.362;2023-08-06T07:44:50;3.97;;;1.87;;
18076;SDS011;9165;45.714;11.362;2023-08-06T07:47:17;2.07;;;1.20;;
18076;SDS011;9165;45.714;11.362;2023-08-06T07:49:43;1.63;;;1.53;;
18076;SDS011;9165;45.714;11.362;2023-08-06T07:52:10;3.07;;;1.60;;
18076;SDS011;9165;45.714;11.362;2023-08-06T07:54:37;5.03;;;1.80;;
18076;SDS011;9165;45.714;11.362;2023-08-06T07:57:06;2.03;;;1.50;;
18076;SDS011;9165;45.714;11.362;2023-08-06T07:59:32;2.77;;;1.70;;
18076;SDS011;9165;45.714;11.362;2023-08-06T08:01:59;3.13;;;1.60;;
18076;SDS011;9165;45.714;11.362;2023-08-06T08:04:26;2.23;;;2.03;;
18076;SDS011;9165;45.714;11.362;2023-08-06T08:06:52;1.60;;;1.40;;
18076;SDS011;9165;45.714;11.362;2023-08-06T08:09:19;2.10;;;1.50;;
18076;SDS011;9165;45.714;11.362;2023-08-06T08:11:46;1.30;;;1.13;;
18076;SDS011;9165;45.714;11.362;2023-08-06T08:14:14;1.73;;;1.40;;
18076;SDS011;9165;45.714;11.362;2023-08-06T08:16:41;3.77;;;1.40;;
18076;SDS011;9165;45.714;11.362;2023-08-06T08:19:08;2.97;;;1.40;;
18076;SDS011;9165;45.714;11.362;2023-08-06T08:21:34;3.90;;;1.27;;
18076;SDS011;9165;45.714;11.362;2023-08-06T08:24:03;2.43;;;1.23;;
18076;SDS011;9165;45.714;11.362;2023-08-06T08:26:30;1.70;;;1.20;;
18076;SDS011;9165;45.714;11.362;2023-08-06T08:28:57;1.50;;;1.30;;
18076;SDS011;9165;45.714;11.362;2023-08-06T08:31:25;1.40;;;1.30;;
18076;SDS011;9165;45.714;11.362;2023-08-06T08:33:53;1.60;;;1.40;;
18076;SDS011;9165;45.714;11.362;2023-08-06T08:36:20;1.37;;;1.27;;
18076;SDS011;9165;45.714;11.362;2023-08-06T08:38:47;1.20;;;1.10;;
18076;SDS011;9165;45.714;11.362;2023-08-06T08:41:15;4.43;;;1.73;;
18076;SDS011;9165;45.714;11.362;2023-08-06T08:43:42;1.70;;;1.60;;
18076;SDS011;9165;45.714;11.362;2023-08-06T08:46:09;1.70;;;1.60;;
18076;SDS011;9165;45.714;11.362;2023-08-06T08:48:37;6.47;;;1.77;;
18076;SDS011;9165;45.714;11.362;2023-08-06T08:51:04;4.97;;;1.70;;
18076;SDS011;9165;45.714;11.362;2023-08-06T08:53:33;8.33;;;1.70;;
18076;SDS011;9165;45.714;11.362;2023-08-06T08:55:59;1.93;;;1.77;;
18076;SDS011;9165;45.714;11.362;2023-08-06T08:58:26;2.00;;;1.80;;
18076;SDS011;9165;45.714;11.362;2023-08-06T09:00:53;2.53;;;1.90;;
18076;SDS011;9165;45.714;11.362;2023-08-06T09:03:20;2.07;;;1.60;;
18076;SDS011;9165;45.714;11.362;2023-08-06T09:05:49;2.63;;;1.57;;
18076;SDS011;9165;45.714;11.362;2023-08-06T09:08:18;2.87;;;1.70;;
18076;SDS011;9165;45.714;11.362;2023-08-06T09:10:48;3.87;;;1.90;;
18076;SDS011;9165;45.714;11.362;2023-08-06T09:13:15;1.63;;;1.53;;
18076;SDS011;9165;45.714;11.362;2023-08-06T09:15:42;2.10;;;1.57;;
18076;SDS011;9165;45.714;11.362;2023-08-06T09:18:09;1.93;;;1.73;;
18076;SDS011;9165;45.714;11.362;2023-08-06T09:20:37;2.13;;;1.50;;
18076;SDS011;9165;45.714;11.362;2023-08-06T09:23:08;1.83;;;1.73;;
18076;SDS011;9165;45.714;11.362;2023-08-06T09:25:37;2.00;;;1.80;;
18076;SDS011;9165;45.714;11.362;2023-08-06T09:28:04;2.00;;;1.40;;
18076;SDS011;9165;45.714;11.362;2023-08-06T09:30:31;3.67;;;1.20;;
18076;SDS011;9165;45.714;11.362;2023-08-06T09:32:58;2.43;;;1.63;;
18076;SDS011;9165;45.714;11.362;2023-08-06T09:35:27;4.77;;;2.20;;
18076;SDS011;9165;45.714;11.362;2023-08-06T09:37:54;4.33;;;2.23;;
18076;SDS011;9165;45.714;11.362;2023-08-06T09:40:28;3.10;;;1.97;;
18076;SDS011;9165;45.714;11.362;2023-08-06T09:42:54;1.73;;;1.60;;
18076;SDS011;9165;45.714;11.362;2023-08-06T09:45:21;3.17;;;1.87;;
18076;SDS011;9165;45.714;11.362;2023-08-06T09:47:48;1.77;;;1.50;;
18076;SDS011;9165;45.714;11.362;2023-08-06T09:50:16;1.77;;;1.60;;
18076;SDS011;9165;45.714;11.362;2023-08-06T09:52:43;6.00;;;1.80;;
18076;SDS011;9165;45.714;11.362;2023-08-06T09:55:10;6.00;;;2.93;;
18076;SDS011;9165;45.714;11.362;2023-08-06T09:57:39;2.13;;;1.50;;
18076;SDS011;9165;45.714;11.362;2023-08-06T10:00:07;5.77;;;2.00;;
18076;SDS011;9165;45.714;11.362;2023-08-06T10:02:34;2.53;;;1.20;;
18076;SDS011;9165;45.714;11.362;2023-08-06T10:05:02;2.50;;;1.70;;
18076;SDS011;9165;45.714;11.362;2023-08-06T10:07:29;2.20;;;1.30;;
18076;SDS011;9165;45.714;11.362;2023-08-06T10:09:56;1.37;;;1.23;;
18076;SDS011;9165;45.714;11.362;2023-08-06T10:12:23;1.60;;;1.50;;
18076;SDS011;9165;45.714;11.362;2023-08-06T10:14:52;3.07;;;1.30;;
18076;SDS011;9165;45.714;11.362;2023-08-06T10:17:19;2.53;;;1.50;;
18076;SDS011;9165;45.714;11.362;2023-08-06T10:19:47;3.30;;;1.70;;
18076;SDS011;9165;45.714;11.362;2023-08-06T10:22:14;2.70;;;1.33;;
18076;SDS011;9165;45.714;11.362;2023-08-06T10:24:45;1.40;;;1.30;;
18076;SDS011;9165;45.714;11.362;2023-08-06T10:27:12;2.10;;;1.10;;
18076;SDS011;9165;45.714;11.362;2023-08-06T10:29:39;9.23;;;1.70;;
18076;SDS011;9165;45.714;11.362;2023-08-06T10:32:07;2.93;;;1.53;;
18076;SDS011;9165;45.714;11.362;2023-08-06T10:34:53;2.23;;;1.90;;
18076;SDS011;9165;45.714;11.362;2023-08-06T10:37:20;2.07;;;1.37;;
18076;SDS011;9165;45.714;11.362;2023-08-06T10:39:48;2.57;;;1.40;;
18076;SDS011;9165;45.714;11.362;2023-08-06T10:42:19;2.53;;;2.23;;
18076;SDS011;9165;45.714;11.362;2023-08-06T10:47:28;2.50;;;1.80;;
18076;SDS011;9165;45.714;11.362;2023-08-06T10:49:55;2.50;;;2.00;;
18076;SDS011;9165;45.714;11.362;2023-08-06T10:52:22;2.20;;;1.50;;
18076;SDS011;9165;45.714;11.362;2023-08-06T10:54:48;2.00;;;1.40;;
18076;SDS011;9165;45.714;11.362;2023-08-06T10:57:15;1.87;;;1.60;;
18076;SDS011;9165;45.714;11.362;2023-08-06T10:59:42;3.20;;;1.60;;
18076;SDS011;9165;45.714;11.362;2023-08-06T11:02:09;2.07;;;1.90;;
18076;SDS011;9165;45.714;11.362;2023-08-06T11:04:37;2.70;;;1.70;;
18076;SDS011;9165;45.714;11.362;2023-08-06T11:07:06;1.70;;;1.50;;
18076;SDS011;9165;45.714;11.362;2023-08-06T11:09:33;1.30;;;1.00;;
18076;SDS011;9165;45.714;11.362;2023-08-06T11:12:00;3.13;;;1.20;;
18076;SDS011;9165;45.714;11.362;2023-08-06T11:14:26;1.20;;;1.10;;
18076;SDS011;9165;45.714;11.362;2023-08-06T11:16:53;2.80;;;1.30;;
18076;SDS011;9165;45.714;11.362;2023-08-06T11:19:20;3.57;;;1.27;;
18076;SDS011;9165;45.714;11.362;2023-08-06T11:21:50;2.60;;;1.20;;
18076;SDS011;9165;45.714;11.362;2023-08-06T11:24:17;2.17;;;1.63;;
18076;SDS011;9165;45.714;11.362;2023-08-06T11:26:44;2.53;;;1.40;;
18076;SDS011;9165;45.714;11.362;2023-08-06T11:29:10;2.28;;;1.20;;
18076;SDS011;9165;45.714;11.362;2023-08-06T11:31:37;2.50;;;1.30;;
18076;SDS011;9165;45.714;11.362;2023-08-06T11:34:03;2.80;;;1.20;;
18076;SDS011;9165;45.714;11.362;2023-08-06T11:36:30;3.15;;;1.35;;
18076;SDS011;9165;45.714;11.362;2023-08-06T11:38:58;1.67;;;1.48;;
18076;SDS011;9165;45.714;11.362;2023-08-06T11:41:25;1.60;;;1.20;;
18076;SDS011;9165;45.714;11.362;2023-08-06T11:43:51;4.63;;;1.60;;
18076;SDS011;9165;45.714;11.362;2023-08-06T11:46:18;1.30;;;1.20;;
18076;SDS011;9165;45.714;11.362;2023-08-06T11:48:54;3.00;;;1.00;;
18076;SDS011;9165;45.714;11.362;2023-08-06T11:51:22;1.77;;;1.45;;
18076;SDS011;9165;45.714;11.362;2023-08-06T11:53:48;1.60;;;1.50;;
18076;SDS011;9165;45.714;11.362;2023-08-06T11:56:16;2.20;;;1.30;;
18076;SDS011;9165;45.714;11.362;2023-08-06T11:58:43;1.73;;;1.53;;
18076;SDS011;9165;45.714;11.362;2023-08-06T12:01:09;3.30;;;1.70;;
18076;SDS011;9165;45.714;11.362;2023-08-06T12:03:38;1.73;;;1.20;;
18076;SDS011;9165;45.714;11.362;2023-08-06T12:06:05;2.53;;;1.30;;
18076;SDS011;9165;45.714;11.362;2023-08-06T12:08:32;1.80;;;1.37;;
18076;SDS011;9165;45.714;11.362;2023-08-06T12:10:58;1.43;;;1.33;;
18076;SDS011;9165;45.714;11.362;2023-08-06T12:13:27;2.13;;;1.50;;
18076;SDS011;9165;45.714;11.362;2023-08-06T12:15:54;1.50;;;1.40;;
18076;SDS011;9165;45.714;11.362;2023-08-06T12:18:22;1.63;;;1.43;;
18076;SDS011;9165;45.714;11.362;2023-08-06T12:20:49;1.80;;;1.50;;
18076;SDS011;9165;45.714;11.362;2023-08-06T12:23:16;2.47;;;1.60;;
18076;SDS011;9165;45.714;11.362;2023-08-06T12:25:43;3.23;;;1.93;;
18076;SDS011;9165;45.714;11.362;2023-08-06T12:28:11;1.63;;;1.37;;
18076;SDS011;9165;45.714;11.362;2023-08-06T12:30:40;1.43;;;1.30;;
18076;SDS011;9165;45.714;11.362;2023-08-06T12:33:09;3.13;;;1.60;;
18076;SDS011;9165;45.714;11.362;2023-08-06T12:35:36;1.60;;;1.47;;
18076;SDS011;9165;45.714;11.362;2023-08-06T12:38:03;4.03;;;1.47;;
18076;SDS011;9165;45.714;11.362;2023-08-06T12:40:30;2.13;;;1.17;;
18076;SDS011;9165;45.714;11.362;2023-08-06T12:42:56;1.60;;;1.43;;
18076;SDS011;9165;45.714;11.362;2023-08-06T12:45:24;3.50;;;1.37;;
18076;SDS011;9165;45.714;11.362;2023-08-06T12:47:52;4.60;;;1.63;;
18076;SDS011;9165;45.714;11.362;2023-08-06T12:50:19;1.70;;;1.40;;
18076;SDS011;9165;45.714;11.362;2023-08-06T12:52:45;1.73;;;1.60;;
18076;SDS011;9165;45.714;11.362;2023-08-06T12:55:12;1.60;;;1.50;;
18076;SDS011;9165;45.714;11.362;2023-08-06T12:57:39;3.10;;;2.57;;
18076;SDS011;9165;45.714;11.362;2023-08-06T13:00:07;4.07;;;1.73;;
18076;SDS011;9165;45.714;11.362;2023-08-06T13:02:34;2.97;;;1.60;;
18076;SDS011;9165;45.714;11.362;2023-08-06T13:05:02;3.97;;;1.70;;
18076;SDS011;9165;45.714;11.362;2023-08-06T13:07:31;2.80;;;2.27;;
18076;SDS011;9165;45.714;11.362;2023-08-06T13:09:57;1.43;;;1.27;;
18076;SDS011;9165;45.714;11.362;2023-08-06T13:12:24;1.50;;;1.40;;
18076;SDS011;9165;45.714;11.362;2023-08-06T13:14:50;2.10;;;1.40;;
18076;SDS011;9165;45.714;11.362;2023-08-06T13:17:18;1.00;;;1.00;;
18076;SDS011;9165;45.714;11.362;2023-08-06T13:19:44;1.37;;;1.20;;
18076;SDS011;9165;45.714;11.362;2023-08-06T13:22:12;1.63;;;1.10;;
18076;SDS011;9165;45.714;11.362;2023-08-06T13:24:39;2.03;;;1.10;;
18076;SDS011;9165;45.714;11.362;2023-08-06T13:27:06;1.20;;;1.10;;
18076;SDS011;9165;45.714;11.362;2023-08-06T13:29:34;1.17;;;1.00;;
18076;SDS011;9165;45.714;11.362;2023-08-06T13:32:01;1.20;;;0.97;;
18076;SDS011;9165;45.714;11.362;2023-08-06T13:34:28;1.50;;;1.13;;
18076;SDS011;9165;45.714;11.362;2023-08-06T13:36:54;1.80;;;1.10;;
18076;SDS011;9165;45.714;11.362;2023-08-06T13:39:23;2.43;;;1.20;;
18076;SDS011;9165;45.714;11.362;2023-08-06T13:41:49;2.00;;;1.47;;
18076;SDS011;9165;45.714;11.362;2023-08-06T13:44:16;2.33;;;1.50;;
18076;SDS011;9165;45.714;11.362;2023-08-06T13:46:42;3.33;;;1.83;;
18076;SDS011;9165;45.714;11.362;2023-08-06T13:49:09;3.57;;;1.83;;
18076;SDS011;9165;45.714;11.362;2023-08-06T13:51:36;1.43;;;1.00;;
18076;SDS011;9165;45.714;11.362;2023-08-06T13:54:03;6.50;;;1.40;;
18076;SDS011;9165;45.714;11.362;2023-08-06T13:56:31;0.80;;;0.80;;
18076;SDS011;9165;45.714;11.362;2023-08-06T13:58:58;2.73;;;1.13;;
18076;SDS011;9165;45.714;11.362;2023-08-06T14:01:24;0.73;;;0.73;;
18076;SDS011;9165;45.714;11.362;2023-08-06T14:03:51;2.57;;;1.27;;
18076;SDS011;9165;45.714;11.362;2023-08-06T14:06:18;1.77;;;1.00;;
18076;SDS011;9165;45.714;11.362;2023-08-06T14:08:45;1.40;;;1.00;;
18076;SDS011;9165;45.714;11.362;2023-08-06T14:11:11;1.03;;;1.00;;
18076;SDS011;9165;45.714;11.362;2023-08-06T14:13:39;0.73;;;0.73;;
18076;SDS011;9165;45.714;11.362;2023-08-06T14:16:06;3.07;;;1.20;;
18076;SDS011;9165;45.714;11.362;2023-08-06T14:18:33;1.40;;;1.10;;
18076;SDS011;9165;45.714;11.362;2023-08-06T14:21:02;1.60;;;1.40;;
18076;SDS011;9165;45.714;11.362;2023-08-06T14:23:29;1.23;;;1.03;;
18076;SDS011;9165;45.714;11.362;2023-08-06T14:25:56;1.90;;;1.07;;
18076;SDS011;9165;45.714;11.362;2023-08-06T14:28:22;2.97;;;1.07;;
18076;SDS011;9165;45.714;11.362;2023-08-06T14:30:50;1.53;;;1.23;;
18076;SDS011;9165;45.714;11.362;2023-08-06T14:33:17;1.90;;;1.50;;
18076;SDS011;9165;45.714;11.362;2023-08-06T14:35:43;2.33;;;1.50;;
18076;SDS011;9165;45.714;11.362;2023-08-06T14:38:10;2.53;;;1.20;;
18076;SDS011;9165;45.714;11.362;2023-08-06T14:40:36;1.87;;;1.17;;
18076;SDS011;9165;45.714;11.362;2023-08-06T14:43:04;5.40;;;1.20;;
18076;SDS011;9165;45.714;11.362;2023-08-06T14:45:31;1.57;;;1.20;;
18076;SDS011;9165;45.714;11.362;2023-08-06T14:47:59;1.97;;;1.30;;
18076;SDS011;9165;45.714;11.362;2023-08-06T14:50:26;1.53;;;1.23;;